Terminal Aerodrome Forecast
Issued by NWS Twin Cities, MN

Home | Current Version | Previous Version | Text Only | Print | Product List | Glossary Off
Versions: 1 2 3 4 5 6 7 8 9 10 11 12

000
FTUS43 KMPX 221720
TAFEAU
TAF
KEAU 221720Z 2218/2318 24006KT P6SM SKC
     FM230200 21004KT P6SM SKC
     FM231600 01004KT P6SM FEW200=

USA.gov is the U.S. government's official web portal to all federal, state and local government web resources and services.